sensor_id;sensor_type;location;lat;lon;timestamp;temperature;humidity
67157;SHT31;54086;50.126;8.710;2023-05-14T00:00:51;13.49;83.61
67157;SHT31;54086;50.126;8.710;2023-05-14T00:03:17;13.50;83.44
67157;SHT31;54086;50.126;8.710;2023-05-14T00:05:42;13.43;83.33
67157;SHT31;54086;50.126;8.710;2023-05-14T00:08:08;13.45;83.48
67157;SHT31;54086;50.126;8.710;2023-05-14T00:10:33;13.45;83.13
67157;SHT31;54086;50.126;8.710;2023-05-14T00:12:58;13.42;83.51
67157;SHT31;54086;50.126;8.710;2023-05-14T00:15:24;13.45;83.36
67157;SHT31;54086;50.126;8.710;2023-05-14T00:17:49;13.36;83.18
67157;SHT31;54086;50.126;8.710;2023-05-14T00:20:15;13.40;82.93
67157;SHT31;54086;50.126;8.710;2023-05-14T00:22:40;13.43;83.16
67157;SHT31;54086;50.126;8.710;2023-05-14T00:25:06;13.40;82.84
67157;SHT31;54086;50.126;8.710;2023-05-14T00:27:33;13.38;82.40
67157;SHT31;54086;50.126;8.710;2023-05-14T00:29:58;13.32;82.53
67157;SHT31;54086;50.126;8.710;2023-05-14T00:32:24;13.34;82.93
67157;SHT31;54086;50.126;8.710;2023-05-14T00:34:49;13.35;82.62
67157;SHT31;54086;50.126;8.710;2023-05-14T00:37:14;13.29;82.71
67157;SHT31;54086;50.126;8.710;2023-05-14T00:39:40;13.20;83.09
67157;SHT31;54086;50.126;8.710;2023-05-14T00:42:05;13.16;83.90
67157;SHT31;54086;50.126;8.710;2023-05-14T00:44:31;13.16;83.85
67157;SHT31;54086;50.126;8.710;2023-05-14T00:46:57;13.06;84.01
67157;SHT31;54086;50.126;8.710;2023-05-14T00:49:23;13.08;84.30
67157;SHT31;54086;50.126;8.710;2023-05-14T00:51:49;13.04;84.47
67157;SHT31;54086;50.126;8.710;2023-05-14T00:54:16;12.97;84.59
67157;SHT31;54086;50.126;8.710;2023-05-14T00:56:45;12.92;84.76
67157;SHT31;54086;50.126;8.710;2023-05-14T00:59:11;12.81;85.11
67157;SHT31;54086;50.126;8.710;2023-05-14T01:01:36;12.68;85.38
67157;SHT31;54086;50.126;8.710;2023-05-14T01:04:02;12.65;85.43
67157;SHT31;54086;50.126;8.710;2023-05-14T01:06:44;12.81;84.99
67157;SHT31;54086;50.126;8.710;2023-05-14T01:09:26;12.77;85.00
67157;SHT31;54086;50.126;8.710;2023-05-14T01:17:19;12.80;85.16
67157;SHT31;54086;50.126;8.710;2023-05-14T01:19:47;12.76;85.19
67157;SHT31;54086;50.126;8.710;2023-05-14T01:22:12;12.74;85.31
67157;SHT31;54086;50.126;8.710;2023-05-14T01:24:39;12.60;85.62
67157;SHT31;54086;50.126;8.710;2023-05-14T01:27:09;12.65;85.57
67157;SHT31;54086;50.126;8.710;2023-05-14T01:29:39;12.65;85.40
67157;SHT31;54086;50.126;8.710;2023-05-14T01:32:07;12.58;85.67
67157;SHT31;54086;50.126;8.710;2023-05-14T01:34:34;12.51;85.98
67157;SHT31;54086;50.126;8.710;2023-05-14T01:37:00;12.51;86.01
67157;SHT31;54086;50.126;8.710;2023-05-14T01:39:27;12.57;85.92
67157;SHT31;54086;50.126;8.710;2023-05-14T01:41:53;12.54;85.73
67157;SHT31;54086;50.126;8.710;2023-05-14T01:44:19;12.48;85.99
67157;SHT31;54086;50.126;8.710;2023-05-14T01:46:45;12.53;86.08
67157;SHT31;54086;50.126;8.710;2023-05-14T01:49:11;12.46;86.22
67157;SHT31;54086;50.126;8.710;2023-05-14T01:51:36;12.41;86.40
67157;SHT31;54086;50.126;8.710;2023-05-14T01:54:02;12.43;86.48
67157;SHT31;54086;50.126;8.710;2023-05-14T01:56:27;12.41;86.70
67157;SHT31;54086;50.126;8.710;2023-05-14T01:58:52;12.38;86.71
67157;SHT31;54086;50.126;8.710;2023-05-14T02:01:19;12.41;86.27
67157;SHT31;54086;50.126;8.710;2023-05-14T02:03:45;12.36;86.11
67157;SHT31;54086;50.126;8.710;2023-05-14T02:06:10;12.44;86.17
67157;SHT31;54086;50.126;8.710;2023-05-14T02:08:36;12.32;86.29
67157;SHT31;54086;50.126;8.710;2023-05-14T02:11:01;12.27;86.43
67157;SHT31;54086;50.126;8.710;2023-05-14T02:13:26;12.33;86.26
67157;SHT31;54086;50.126;8.710;2023-05-14T02:15:52;12.38;85.87
67157;SHT31;54086;50.126;8.710;2023-05-14T02:18:17;12.40;85.87
67157;SHT31;54086;50.126;8.710;2023-05-14T02:20:43;12.32;86.00
67157;SHT31;54086;50.126;8.710;2023-05-14T02:23:08;12.25;86.34
67157;SHT31;54086;50.126;8.710;2023-05-14T02:25:34;12.17;86.39
67157;SHT31;54086;50.126;8.710;2023-05-14T02:27:59;12.13;86.62
67157;SHT31;54086;50.126;8.710;2023-05-14T02:30:25;12.10;86.86
67157;SHT31;54086;50.126;8.710;2023-05-14T02:32:50;12.10;86.55
67157;SHT31;54086;50.126;8.710;2023-05-14T02:35:16;12.17;86.16
67157;SHT31;54086;50.126;8.710;2023-05-14T02:37:41;12.26;85.67
67157;SHT31;54086;50.126;8.710;2023-05-14T02:40:07;12.26;85.67
67157;SHT31;54086;50.126;8.710;2023-05-14T02:42:33;12.27;85.69
67157;SHT31;54086;50.126;8.710;2023-05-14T02:44:58;12.13;85.99
67157;SHT31;54086;50.126;8.710;2023-05-14T02:47:24;12.06;86.15
67157;SHT31;54086;50.126;8.710;2023-05-14T02:49:49;11.93;86.65
67157;SHT31;54086;50.126;8.710;2023-05-14T02:52:14;11.92;86.38
67157;SHT31;54086;50.126;8.710;2023-05-14T02:54:40;12.00;86.28
67157;SHT31;54086;50.126;8.710;2023-05-14T02:57:05;11.93;86.65
67157;SHT31;54086;50.126;8.710;2023-05-14T02:59:30;11.86;86.78
67157;SHT31;54086;50.126;8.710;2023-05-14T03:01:56;11.83;86.96
67157;SHT31;54086;50.126;8.710;2023-05-14T03:04:22;11.77;87.50
67157;SHT31;54086;50.126;8.710;2023-05-14T03:06:47;11.77;87.30
67157;SHT31;54086;50.126;8.710;2023-05-14T03:09:13;11.74;87.56
67157;SHT31;54086;50.126;8.710;2023-05-14T03:11:38;11.74;87.43
67157;SHT31;54086;50.126;8.710;2023-05-14T03:14:04;11.67;87.60
67157;SHT31;54086;50.126;8.710;2023-05-14T03:16:29;11.72;87.48
67157;SHT31;54086;50.126;8.710;2023-05-14T03:18:55;11.68;87.42
67157;SHT31;54086;50.126;8.710;2023-05-14T03:21:20;11.68;87.51
67157;SHT31;54086;50.126;8.710;2023-05-14T03:23:46;11.71;87.60
67157;SHT31;54086;50.126;8.710;2023-05-14T03:26:11;11.59;87.54
67157;SHT31;54086;50.126;8.710;2023-05-14T03:28:37;11.62;87.75
67157;SHT31;54086;50.126;8.710;2023-05-14T03:31:02;11.52;88.18
67157;SHT31;54086;50.126;8.710;2023-05-14T03:33:27;11.42;88.54
67157;SHT31;54086;50.126;8.710;2023-05-14T03:35:53;11.47;88.36
67157;SHT31;54086;50.126;8.710;2023-05-14T03:38:18;11.45;88.11
67157;SHT31;54086;50.126;8.710;2023-05-14T03:40:44;11.45;88.20
67157;SHT31;54086;50.126;8.710;2023-05-14T03:43:09;11.41;88.40
67157;SHT31;54086;50.126;8.710;2023-05-14T03:45:35;11.38;88.51
67157;SHT31;54086;50.126;8.710;2023-05-14T03:48:01;11.37;88.49
67157;SHT31;54086;50.126;8.710;2023-05-14T03:50:26;11.32;88.34
67157;SHT31;54086;50.126;8.710;2023-05-14T03:52:52;11.32;88.35
67157;SHT31;54086;50.126;8.710;2023-05-14T03:55:18;11.34;88.07
67157;SHT31;54086;50.126;8.710;2023-05-14T03:57:44;11.38;87.88
67157;SHT31;54086;50.126;8.710;2023-05-14T04:00:10;11.37;87.92
67157;SHT31;54086;50.126;8.710;2023-05-14T04:02:36;11.38;87.74
67157;SHT31;54086;50.126;8.710;2023-05-14T04:05:01;11.39;87.67
67157;SHT31;54086;50.126;8.710;2023-05-14T04:07:26;11.35;88.07
67157;SHT31;54086;50.126;8.710;2023-05-14T04:09:52;11.31;87.91
67157;SHT31;54086;50.126;8.710;2023-05-14T04:12:17;11.37;87.74
67157;SHT31;54086;50.126;8.710;2023-05-14T04:14:43;11.37;87.78
67157;SHT31;54086;50.126;8.710;2023-05-14T04:17:08;11.30;87.97
67157;SHT31;54086;50.126;8.710;2023-05-14T04:19:33;11.35;87.82
67157;SHT31;54086;50.126;8.710;2023-05-14T04:21:59;11.35;87.77
67157;SHT31;54086;50.126;8.710;2023-05-14T04:24:24;11.35;87.91
67157;SHT31;54086;50.126;8.710;2023-05-14T04:26:50;11.31;87.59
67157;SHT31;54086;50.126;8.710;2023-05-14T04:29:15;11.39;87.68
67157;SHT31;54086;50.126;8.710;2023-05-14T04:31:40;11.32;87.68
67157;SHT31;54086;50.126;8.710;2023-05-14T04:34:07;11.37;88.05
67157;SHT31;54086;50.126;8.710;2023-05-14T04:36:32;11.48;87.41
67157;SHT31;54086;50.126;8.710;2023-05-14T04:38:58;11.31;87.82
67157;SHT31;54086;50.126;8.710;2023-05-14T04:41:23;11.38;87.77
67157;SHT31;54086;50.126;8.710;2023-05-14T04:43:49;11.38;87.73
67157;SHT31;54086;50.126;8.710;2023-05-14T04:46:15;11.50;87.42
67157;SHT31;54086;50.126;8.710;2023-05-14T04:48:40;11.39;87.61
67157;SHT31;54086;50.126;8.710;2023-05-14T04:51:06;11.50;87.51
67157;SHT31;54086;50.126;8.710;2023-05-14T04:53:31;11.50;87.43
67157;SHT31;54086;50.126;8.710;2023-05-14T04:55:58;11.54;87.43
67157;SHT31;54086;50.126;8.710;2023-05-14T04:58:23;11.58;87.13
67157;SHT31;54086;50.126;8.710;2023-05-14T05:00:49;11.59;87.01
67157;SHT31;54086;50.126;8.710;2023-05-14T05:03:14;11.72;86.63
67157;SHT31;54086;50.126;8.710;2023-05-14T05:05:40;11.88;86.03
67157;SHT31;54086;50.126;8.710;2023-05-14T05:08:05;11.83;85.88
67157;SHT31;54086;50.126;8.710;2023-05-14T05:10:31;12.03;85.52
67157;SHT31;54086;50.126;8.710;2023-05-14T05:12:56;12.06;85.22
67157;SHT31;54086;50.126;8.710;2023-05-14T05:15:21;12.10;84.97
67157;SHT31;54086;50.126;8.710;2023-05-14T05:17:47;12.00;85.08
67157;SHT31;54086;50.126;8.710;2023-05-14T05:20:12;12.15;85.03
67157;SHT31;54086;50.126;8.710;2023-05-14T05:22:38;12.20;84.77
67157;SHT31;54086;50.126;8.710;2023-05-14T05:25:03;12.17;84.94
67157;SHT31;54086;50.126;8.710;2023-05-14T05:27:32;12.20;84.91
67157;SHT31;54086;50.126;8.710;2023-05-14T05:29:59;12.29;84.80
67157;SHT31;54086;50.126;8.710;2023-05-14T05:32:25;12.30;84.43
67157;SHT31;54086;50.126;8.710;2023-05-14T05:34:50;12.30;84.70
67157;SHT31;54086;50.126;8.710;2023-05-14T05:37:16;12.37;84.55
67157;SHT31;54086;50.126;8.710;2023-05-14T05:39:41;12.38;84.34
67157;SHT31;54086;50.126;8.710;2023-05-14T05:42:07;12.46;84.35
67157;SHT31;54086;50.126;8.710;2023-05-14T05:44:33;12.43;83.92
67157;SHT31;54086;50.126;8.710;2023-05-14T05:46:58;12.54;83.40
67157;SHT31;54086;50.126;8.710;2023-05-14T05:49:24;12.60;83.07
67157;SHT31;54086;50.126;8.710;2023-05-14T05:51:50;12.65;83.14
67157;SHT31;54086;50.126;8.710;2023-05-14T05:54:15;12.80;82.97
67157;SHT31;54086;50.126;8.710;2023-05-14T05:56:41;12.98;82.11
67157;SHT31;54086;50.126;8.710;2023-05-14T05:59:06;13.08;82.32
67157;SHT31;54086;50.126;8.710;2023-05-14T06:01:32;13.05;82.04
67157;SHT31;54086;50.126;8.710;2023-05-14T06:03:57;13.08;81.98
67157;SHT31;54086;50.126;8.710;2023-05-14T06:06:23;13.16;81.91
67157;SHT31;54086;50.126;8.710;2023-05-14T06:08:49;13.18;82.16
67157;SHT31;54086;50.126;8.710;2023-05-14T06:11:15;13.23;81.80
67157;SHT31;54086;50.126;8.710;2023-05-14T06:13:41;13.30;81.46
67157;SHT31;54086;50.126;8.710;2023-05-14T06:16:06;13.18;82.20
67157;SHT31;54086;50.126;8.710;2023-05-14T06:18:32;13.14;82.15
67157;SHT31;54086;50.126;8.710;2023-05-14T06:20:57;13.19;82.54
67157;SHT31;54086;50.126;8.710;2023-05-14T06:23:24;13.16;82.64
67157;SHT31;54086;50.126;8.710;2023-05-14T06:25:50;13.20;82.35
67157;SHT31;54086;50.126;8.710;2023-05-14T06:28:16;13.36;81.81
67157;SHT31;54086;50.126;8.710;2023-05-14T06:30:41;13.43;81.31
67157;SHT31;54086;50.126;8.710;2023-05-14T06:33:07;13.49;80.83
67157;SHT31;54086;50.126;8.710;2023-05-14T06:35:32;13.55;80.54
67157;SHT31;54086;50.126;8.710;2023-05-14T06:37:58;13.71;80.41
67157;SHT31;54086;50.126;8.710;2023-05-14T06:40:24;13.69;80.01
67157;SHT31;54086;50.126;8.710;2023-05-14T06:42:49;13.77;80.06
67157;SHT31;54086;50.126;8.710;2023-05-14T06:45:15;13.73;79.81
67157;SHT31;54086;50.126;8.710;2023-05-14T06:47:40;13.93;79.36
67157;SHT31;54086;50.126;8.710;2023-05-14T06:50:06;13.91;80.00
67157;SHT31;54086;50.126;8.710;2023-05-14T06:52:31;14.11;79.12
67157;SHT31;54086;50.126;8.710;2023-05-14T06:54:57;14.13;78.63
67157;SHT31;54086;50.126;8.710;2023-05-14T06:57:23;14.27;78.72
67157;SHT31;54086;50.126;8.710;2023-05-14T06:59:48;14.42;78.89
67157;SHT31;54086;50.126;8.710;2023-05-14T07:02:13;14.48;77.81
67157;SHT31;54086;50.126;8.710;2023-05-14T07:04:39;14.64;77.61
67157;SHT31;54086;50.126;8.710;2023-05-14T07:07:04;14.83;76.68
67157;SHT31;54086;50.126;8.710;2023-05-14T07:09:32;14.83;76.57
67157;SHT31;54086;50.126;8.710;2023-05-14T07:11:57;14.93;76.29
67157;SHT31;54086;50.126;8.710;2023-05-14T07:14:22;14.99;76.57
67157;SHT31;54086;50.126;8.710;2023-05-14T07:16:48;15.06;76.54
67157;SHT31;54086;50.126;8.710;2023-05-14T07:19:13;14.93;76.64
67157;SHT31;54086;50.126;8.710;2023-05-14T07:21:39;15.00;77.16
67157;SHT31;54086;50.126;8.710;2023-05-14T07:24:04;14.99;77.04
67157;SHT31;54086;50.126;8.710;2023-05-14T07:26:30;15.06;77.05
67157;SHT31;54086;50.126;8.710;2023-05-14T07:28:55;15.19;76.56
67157;SHT31;54086;50.126;8.710;2023-05-14T07:31:21;14.96;77.04
67157;SHT31;54086;50.126;8.710;2023-05-14T07:33:47;15.08;76.99
67157;SHT31;54086;50.126;8.710;2023-05-14T07:36:13;15.07;77.22
67157;SHT31;54086;50.126;8.710;2023-05-14T07:38:38;15.27;77.02
67157;SHT31;54086;50.126;8.710;2023-05-14T07:41:04;15.24;76.93
67157;SHT31;54086;50.126;8.710;2023-05-14T07:43:29;15.34;76.93
67157;SHT31;54086;50.126;8.710;2023-05-14T07:45:55;15.37;77.24
67157;SHT31;54086;50.126;8.710;2023-05-14T07:48:21;15.40;76.86
67157;SHT31;54086;50.126;8.710;2023-05-14T07:50:47;15.40;76.52
67157;SHT31;54086;50.126;8.710;2023-05-14T07:53:13;15.57;76.36
67157;SHT31;54086;50.126;8.710;2023-05-14T07:55:38;15.84;76.14
67157;SHT31;54086;50.126;8.710;2023-05-14T07:58:04;15.78;75.34
67157;SHT31;54086;50.126;8.710;2023-05-14T08:00:29;15.77;75.57
67157;SHT31;54086;50.126;8.710;2023-05-14T08:02:55;16.13;75.35
67157;SHT31;54086;50.126;8.710;2023-05-14T08:05:20;16.13;74.70
67157;SHT31;54086;50.126;8.710;2023-05-14T08:07:46;16.06;74.44
67157;SHT31;54086;50.126;8.710;2023-05-14T08:10:11;16.27;74.64
67157;SHT31;54086;50.126;8.710;2023-05-14T08:12:38;16.13;74.13
67157;SHT31;54086;50.126;8.710;2023-05-14T08:15:04;16.26;73.96
67157;SHT31;54086;50.126;8.710;2023-05-14T08:17:31;16.30;72.91
67157;SHT31;54086;50.126;8.710;2023-05-14T08:19:58;16.33;73.02
67157;SHT31;54086;50.126;8.710;2023-05-14T08:22:24;16.81;72.28
67157;SHT31;54086;50.126;8.710;2023-05-14T08:24:49;17.35;70.68
67157;SHT31;54086;50.126;8.710;2023-05-14T08:27:17;17.79;69.38
67157;SHT31;54086;50.126;8.710;2023-05-14T08:29:43;17.66;67.17
67157;SHT31;54086;50.126;8.710;2023-05-14T08:32:08;17.96;66.79
67157;SHT31;54086;50.126;8.710;2023-05-14T08:34:34;18.48;64.13
67157;SHT31;54086;50.126;8.710;2023-05-14T08:37:00;18.81;63.00
67157;SHT31;54086;50.126;8.710;2023-05-14T08:39:26;18.13;64.35
67157;SHT31;54086;50.126;8.710;2023-05-14T08:41:52;18.75;63.42
67157;SHT31;54086;50.126;8.710;2023-05-14T08:44:19;18.38;64.48
67157;SHT31;54086;50.126;8.710;2023-05-14T08:46:45;18.58;64.52
67157;SHT31;54086;50.126;8.710;2023-05-14T08:49:42;18.93;63.22
67157;SHT31;54086;50.126;8.710;2023-05-14T08:52:09;18.38;65.36
67157;SHT31;54086;50.126;8.710;2023-05-14T08:54:35;18.11;66.93
67157;SHT31;54086;50.126;8.710;2023-05-14T08:57:02;18.20;67.00
67157;SHT31;54086;50.126;8.710;2023-05-14T08:59:27;18.21;66.15
67157;SHT31;54086;50.126;8.710;2023-05-14T09:01:55;18.10;66.71
67157;SHT31;54086;50.126;8.710;2023-05-14T09:04:22;17.59;66.74
67157;SHT31;54086;50.126;8.710;2023-05-14T09:06:49;17.67;67.11
67157;SHT31;54086;50.126;8.710;2023-05-14T09:09:15;17.65;67.36
67157;SHT31;54086;50.126;8.710;2023-05-14T09:11:41;17.79;66.91
67157;SHT31;54086;50.126;8.710;2023-05-14T09:14:07;17.87;66.59
67157;SHT31;54086;50.126;8.710;2023-05-14T09:16:33;17.84;67.14
67157;SHT31;54086;50.126;8.710;2023-05-14T09:19:01;17.77;66.72
67157;SHT31;54086;50.126;8.710;2023-05-14T09:21:29;17.90;65.91
67157;SHT31;54086;50.126;8.710;2023-05-14T09:23:56;17.70;66.46
67157;SHT31;54086;50.126;8.710;2023-05-14T09:26:23;17.62;67.53
67157;SHT31;54086;50.126;8.710;2023-05-14T09:28:56;17.77;66.48
67157;SHT31;54086;50.126;8.710;2023-05-14T09:31:26;17.82;65.96
67157;SHT31;54086;50.126;8.710;2023-05-14T09:33:51;17.76;65.90
67157;SHT31;54086;50.126;8.710;2023-05-14T09:36:18;17.82;64.69
67157;SHT31;54086;50.126;8.710;2023-05-14T09:38:43;17.65;64.70
67157;SHT31;54086;50.126;8.710;2023-05-14T09:41:09;17.98;64.11
67157;SHT31;54086;50.126;8.710;2023-05-14T09:43:35;18.13;63.40
67157;SHT31;54086;50.126;8.710;2023-05-14T09:46:00;18.13;63.54
67157;SHT31;54086;50.126;8.710;2023-05-14T09:48:26;17.86;63.98
67157;SHT31;54086;50.126;8.710;2023-05-14T09:50:54;17.56;64.31
67157;SHT31;54086;50.126;8.710;2023-05-14T09:53:21;17.53;64.74
67157;SHT31;54086;50.126;8.710;2023-05-14T09:55:48;17.54;64.66
67157;SHT31;54086;50.126;8.710;2023-05-14T09:58:15;17.73;63.61
67157;SHT31;54086;50.126;8.710;2023-05-14T10:00:44;18.17;62.72
67157;SHT31;54086;50.126;8.710;2023-05-14T10:03:13;18.61;61.16
67157;SHT31;54086;50.126;8.710;2023-05-14T10:05:41;19.09;58.97
67157;SHT31;54086;50.126;8.710;2023-05-14T10:08:13;18.61;59.56
67157;SHT31;54086;50.126;8.710;2023-05-14T10:10:39;18.93;60.00
67157;SHT31;54086;50.126;8.710;2023-05-14T10:13:14;18.89;60.18
67157;SHT31;54086;50.126;8.710;2023-05-14T10:15:51;18.77;60.40
67157;SHT31;54086;50.126;8.710;2023-05-14T10:18:23;18.56;60.96
67157;SHT31;54086;50.126;8.710;2023-05-14T10:20:59;18.59;60.89
67157;SHT31;54086;50.126;8.710;2023-05-14T10:23:28;18.47;60.46
67157;SHT31;54086;50.126;8.710;2023-05-14T10:25:55;18.53;60.43
67157;SHT31;54086;50.126;8.710;2023-05-14T10:28:25;19.06;60.20
67157;SHT31;54086;50.126;8.710;2023-05-14T10:30:50;19.34;58.71
67157;SHT31;54086;50.126;8.710;2023-05-14T10:33:16;19.50;58.42
67157;SHT31;54086;50.126;8.710;2023-05-14T10:36:05;19.46;59.02
67157;SHT31;54086;50.126;8.710;2023-05-14T10:38:33;19.44;58.94
67157;SHT31;54086;50.126;8.710;2023-05-14T10:41:19;19.34;59.16
67157;SHT31;54086;50.126;8.710;2023-05-14T10:43:46;19.49;58.93
67157;SHT31;54086;50.126;8.710;2023-05-14T10:46:12;20.05;57.88
67157;SHT31;54086;50.126;8.710;2023-05-14T10:48:41;20.16;57.90
67157;SHT31;54086;50.126;8.710;2023-05-14T10:51:11;20.22;57.12
67157;SHT31;54086;50.126;8.710;2023-05-14T10:53:41;20.25;58.00
67157;SHT31;54086;50.126;8.710;2023-05-14T10:56:11;20.23;57.60
67157;SHT31;54086;50.126;8.710;2023-05-14T10:58:41;20.53;56.91
67157;SHT31;54086;50.126;8.710;2023-05-14T11:01:15;20.81;56.35
67157;SHT31;54086;50.126;8.710;2023-05-14T11:03:45;20.90;56.33
67157;SHT31;54086;50.126;8.710;2023-05-14T11:06:15;20.44;57.61
67157;SHT31;54086;50.126;8.710;2023-05-14T11:08:41;20.49;58.62
67157;SHT31;54086;50.126;8.710;2023-05-14T11:11:08;20.37;59.26
67157;SHT31;54086;50.126;8.710;2023-05-14T11:13:34;19.85;60.41
67157;SHT31;54086;50.126;8.710;2023-05-14T11:16:01;20.05;59.59
67157;SHT31;54086;50.126;8.710;2023-05-14T11:18:28;19.74;60.68
67157;SHT31;54086;50.126;8.710;2023-05-14T11:21:00;19.81;61.02
67157;SHT31;54086;50.126;8.710;2023-05-14T11:23:26;19.79;60.94
67157;SHT31;54086;50.126;8.710;2023-05-14T11:25:52;19.83;60.69
67157;SHT31;54086;50.126;8.710;2023-05-14T11:28:22;19.60;60.80
67157;SHT31;54086;50.126;8.710;2023-05-14T11:30:49;21.00;57.95
67157;SHT31;54086;50.126;8.710;2023-05-14T11:33:15;20.59;58.45
67157;SHT31;54086;50.126;8.710;2023-05-14T11:35:41;20.60;59.10
67157;SHT31;54086;50.126;8.710;2023-05-14T11:38:16;20.67;58.83
67157;SHT31;54086;50.126;8.710;2023-05-14T11:40:49;20.59;58.76
67157;SHT31;54086;50.126;8.710;2023-05-14T11:43:16;20.13;59.41
67157;SHT31;54086;50.126;8.710;2023-05-14T11:45:41;20.13;59.64
67157;SHT31;54086;50.126;8.710;2023-05-14T11:48:13;20.25;59.69
67157;SHT31;54086;50.126;8.710;2023-05-14T11:50:47;19.91;59.11
67157;SHT31;54086;50.126;8.710;2023-05-14T11:53:24;20.33;58.55
67157;SHT31;54086;50.126;8.710;2023-05-14T11:55:51;20.05;59.24
67157;SHT31;54086;50.126;8.710;2023-05-14T11:58:20;19.96;59.87
67157;SHT31;54086;50.126;8.710;2023-05-14T12:00:49;20.01;59.92
67157;SHT31;54086;50.126;8.710;2023-05-14T12:03:17;20.85;58.63
67157;SHT31;54086;50.126;8.710;2023-05-14T12:06:01;21.48;55.42
67157;SHT31;54086;50.126;8.710;2023-05-14T12:08:31;21.63;53.56
67157;SHT31;54086;50.126;8.710;2023-05-14T12:10:58;21.86;52.22
67157;SHT31;54086;50.126;8.710;2023-05-14T12:13:26;21.45;52.42
67157;SHT31;54086;50.126;8.710;2023-05-14T12:15:58;20.57;55.32
67157;SHT31;54086;50.126;8.710;2023-05-14T12:18:25;20.50;55.48
67157;SHT31;54086;50.126;8.710;2023-05-14T12:20:51;21.41;53.86
67157;SHT31;54086;50.126;8.710;2023-05-14T12:23:27;21.11;54.98
67157;SHT31;54086;50.126;8.710;2023-05-14T12:25:54;21.98;53.13
67157;SHT31;54086;50.126;8.710;2023-05-14T12:28:22;22.22;52.25
67157;SHT31;54086;50.126;8.710;2023-05-14T12:30:47;21.38;52.95
67157;SHT31;54086;50.126;8.710;2023-05-14T12:33:19;20.88;55.02
67157;SHT31;54086;50.126;8.710;2023-05-14T12:35:47;20.91;55.65
67157;SHT31;54086;50.126;8.710;2023-05-14T12:38:12;21.00;55.86
67157;SHT31;54086;50.126;8.710;2023-05-14T12:40:38;20.94;56.43
67157;SHT31;54086;50.126;8.710;2023-05-14T12:43:03;21.35;55.41
67157;SHT31;54086;50.126;8.710;2023-05-14T12:45:29;21.17;54.99
67157;SHT31;54086;50.126;8.710;2023-05-14T12:47:54;21.72;54.29
67157;SHT31;54086;50.126;8.710;2023-05-14T12:50:20;22.76;51.48
67157;SHT31;54086;50.126;8.710;2023-05-14T12:52:46;22.76;51.23
67157;SHT31;54086;50.126;8.710;2023-05-14T12:55:11;23.53;49.97
67157;SHT31;54086;50.126;8.710;2023-05-14T12:57:37;23.37;49.68
67157;SHT31;54086;50.126;8.710;2023-05-14T13:00:03;22.91;50.09
67157;SHT31;54086;50.126;8.710;2023-05-14T13:02:33;23.30;50.63
67157;SHT31;54086;50.126;8.710;2023-05-14T13:04:58;22.86;50.76
67157;SHT31;54086;50.126;8.710;2023-05-14T13:07:27;23.15;49.18
67157;SHT31;54086;50.126;8.710;2023-05-14T13:09:54;22.76;49.92
67157;SHT31;54086;50.126;8.710;2023-05-14T13:12:22;23.36;48.49
67157;SHT31;54086;50.126;8.710;2023-05-14T13:14:47;24.04;47.52
67157;SHT31;54086;50.126;8.710;2023-05-14T13:17:13;23.33;48.21
67157;SHT31;54086;50.126;8.710;2023-05-14T13:19:39;24.25;47.45
67157;SHT31;54086;50.126;8.710;2023-05-14T13:22:04;24.69;46.55
67157;SHT31;54086;50.126;8.710;2023-05-14T13:24:30;24.28;47.55
67157;SHT31;54086;50.126;8.710;2023-05-14T13:26:55;24.86;46.71
67157;SHT31;54086;50.126;8.710;2023-05-14T13:29:21;24.53;47.12
67157;SHT31;54086;50.126;8.710;2023-05-14T13:31:46;24.64;46.88
67157;SHT31;54086;50.126;8.710;2023-05-14T13:34:13;25.15;46.18
67157;SHT31;54086;50.126;8.710;2023-05-14T13:36:39;25.07;45.80
67157;SHT31;54086;50.126;8.710;2023-05-14T13:39:06;23.81;47.80
67157;SHT31;54086;50.126;8.710;2023-05-14T13:41:32;23.65;48.62
67157;SHT31;54086;50.126;8.710;2023-05-14T13:44:02;22.61;49.57
67157;SHT31;54086;50.126;8.710;2023-05-14T13:46:32;23.09;48.70
67157;SHT31;54086;50.126;8.710;2023-05-14T13:49:02;24.45;46.26
67157;SHT31;54086;50.126;8.710;2023-05-14T13:51:27;24.49;45.15
67157;SHT31;54086;50.126;8.710;2023-05-14T13:53:52;23.49;46.69
67157;SHT31;54086;50.126;8.710;2023-05-14T13:56:21;24.42;45.15
67157;SHT31;54086;50.126;8.710;2023-05-14T13:58:49;24.30;45.42
67157;SHT31;54086;50.126;8.710;2023-05-14T14:01:24;25.58;43.72
67157;SHT31;54086;50.126;8.710;2023-05-14T14:03:50;25.76;44.07
67157;SHT31;54086;50.126;8.710;2023-05-14T14:06:15;25.85;43.44
67157;SHT31;54086;50.126;8.710;2023-05-14T14:08:41;24.87;44.69
67157;SHT31;54086;50.126;8.710;2023-05-14T14:11:07;25.37;44.46
67157;SHT31;54086;50.126;8.710;2023-05-14T14:13:32;26.37;43.24
67157;SHT31;54086;50.126;8.710;2023-05-14T14:16:01;25.94;43.14
67157;SHT31;54086;50.126;8.710;2023-05-14T14:18:30;26.03;43.85
67157;SHT31;54086;50.126;8.710;2023-05-14T14:20:58;24.67;44.85
67157;SHT31;54086;50.126;8.710;2023-05-14T14:23:27;25.37;44.39
67157;SHT31;54086;50.126;8.710;2023-05-14T14:25:52;24.48;45.38
67157;SHT31;54086;50.126;8.710;2023-05-14T14:28:20;24.83;44.97
67157;SHT31;54086;50.126;8.710;2023-05-14T14:30:46;24.73;44.56
67157;SHT31;54086;50.126;8.710;2023-05-14T14:33:14;24.80;45.18
67157;SHT31;54086;50.126;8.710;2023-05-14T14:35:43;24.56;44.42
67157;SHT31;54086;50.126;8.710;2023-05-14T14:38:08;24.69;43.83
67157;SHT31;54086;50.126;8.710;2023-05-14T14:40:35;24.79;44.85
67157;SHT31;54086;50.126;8.710;2023-05-14T14:43:04;24.76;44.40
67157;SHT31;54086;50.126;8.710;2023-05-14T14:45:30;24.66;43.96
67157;SHT31;54086;50.126;8.710;2023-05-14T14:48:22;24.97;43.71
67157;SHT31;54086;50.126;8.710;2023-05-14T14:50:59;25.10;44.11
67157;SHT31;54086;50.126;8.710;2023-05-14T14:53:28;25.28;42.95
67157;SHT31;54086;50.126;8.710;2023-05-14T14:55:54;24.93;44.16
67157;SHT31;54086;50.126;8.710;2023-05-14T14:58:21;25.38;44.44
67157;SHT31;54086;50.126;8.710;2023-05-14T15:00:48;24.79;44.85
67157;SHT31;54086;50.126;8.710;2023-05-14T15:03:14;24.24;45.89
67157;SHT31;54086;50.126;8.710;2023-05-14T15:05:42;24.26;45.15
67157;SHT31;54086;50.126;8.710;2023-05-14T15:08:11;25.11;44.96
67157;SHT31;54086;50.126;8.710;2023-05-14T15:10:37;24.86;45.83
67157;SHT31;54086;50.126;8.710;2023-05-14T15:13:04;24.94;45.55
67157;SHT31;54086;50.126;8.710;2023-05-14T15:15:31;24.97;45.44
67157;SHT31;54086;50.126;8.710;2023-05-14T15:17:57;23.88;47.20
67157;SHT31;54086;50.126;8.710;2023-05-14T15:20:22;23.44;48.06
67157;SHT31;54086;50.126;8.710;2023-05-14T15:22:49;23.97;48.10
67157;SHT31;54086;50.126;8.710;2023-05-14T15:25:17;24.64;46.61
67157;SHT31;54086;50.126;8.710;2023-05-14T15:27:43;24.91;47.08
67157;SHT31;54086;50.126;8.710;2023-05-14T15:30:12;23.85;48.44
67157;SHT31;54086;50.126;8.710;2023-05-14T15:32:38;24.52;47.79